sensor_id;sensor_type;location;lat;lon;timestamp;P1;durP1;ratioP1;P2;durP2;ratioP2
74614;SDS011;63121;51.458;-0.110;2022-09-14T00:01:25;9.65;;;2.15;;
74614;SDS011;63121;51.458;-0.110;2022-09-14T00:03:57;9.05;;;2.97;;
74614;SDS011;63121;51.458;-0.110;2022-09-14T00:06:24;8.82;;;2.65;;
74614;SDS011;63121;51.458;-0.110;2022-09-14T00:08:51;8.88;;;2.55;;
74614;SDS011;63121;51.458;-0.110;2022-09-14T00:13:43;7.72;;;2.50;;
74614;SDS011;63121;51.458;-0.110;2022-09-14T00:16:14;8.15;;;2.80;;
74614;SDS011;63121;51.458;-0.110;2022-09-14T00:18:42;10.80;;;2.80;;
74614;SDS011;63121;51.458;-0.110;2022-09-14T00:21:09;10.18;;;2.72;;
74614;SDS011;63121;51.458;-0.110;2022-09-14T00:23:36;8.60;;;2.70;;
74614;SDS011;63121;51.458;-0.110;2022-09-14T00:26:07;6.97;;;2.40;;
74614;SDS011;63121;51.458;-0.110;2022-09-14T00:28:36;7.68;;;2.70;;
74614;SDS011;63121;51.458;-0.110;2022-09-14T00:31:02;8.43;;;2.72;;
74614;SDS011;63121;51.458;-0.110;2022-09-14T00:33:28;8.82;;;2.80;;
74614;SDS011;63121;51.458;-0.110;2022-09-14T00:35:54;6.93;;;2.40;;
74614;SDS011;63121;51.458;-0.110;2022-09-14T00:38:19;9.60;;;2.57;;
74614;SDS011;63121;51.458;-0.110;2022-09-14T00:40:44;8.65;;;2.67;;
74614;SDS011;63121;51.458;-0.110;2022-09-14T00:43:21;11.40;;;3.08;;
74614;SDS011;63121;51.458;-0.110;2022-09-14T00:45:46;8.45;;;2.83;;
74614;SDS011;63121;51.458;-0.110;2022-09-14T00:48:11;6.57;;;2.20;;
74614;SDS011;63121;51.458;-0.110;2022-09-14T00:50:37;7.38;;;2.40;;
74614;SDS011;63121;51.458;-0.110;2022-09-14T00:53:03;7.88;;;2.35;;
74614;SDS011;63121;51.458;-0.110;2022-09-14T00:55:29;7.22;;;2.13;;
74614;SDS011;63121;51.458;-0.110;2022-09-14T00:57:55;7.85;;;2.42;;
74614;SDS011;63121;51.458;-0.110;2022-09-14T01:00:22;11.95;;;2.83;;
74614;SDS011;63121;51.458;-0.110;2022-09-14T01:02:49;11.90;;;3.58;;
74614;SDS011;63121;51.458;-0.110;2022-09-14T01:05:15;7.88;;;2.30;;
74614;SDS011;63121;51.458;-0.110;2022-09-14T01:07:51;9.95;;;2.30;;
74614;SDS011;63121;51.458;-0.110;2022-09-14T01:18:20;12.65;;;3.15;;
74614;SDS011;63121;51.458;-0.110;2022-09-14T01:23:32;9.95;;;2.70;;
74614;SDS011;63121;51.458;-0.110;2022-09-14T01:29:04;10.05;;;2.97;;
74614;SDS011;63121;51.458;-0.110;2022-09-14T01:31:58;7.25;;;2.83;;
74614;SDS011;63121;51.458;-0.110;2022-09-14T01:37:57;11.55;;;3.28;;
74614;SDS011;63121;51.458;-0.110;2022-09-14T01:40:37;9.65;;;2.83;;
74614;SDS011;63121;51.458;-0.110;2022-09-14T01:43:07;10.43;;;3.00;;
74614;SDS011;63121;51.458;-0.110;2022-09-14T01:45:48;10.77;;;3.20;;
74614;SDS011;63121;51.458;-0.110;2022-09-14T01:48:21;10.20;;;2.88;;
74614;SDS011;63121;51.458;-0.110;2022-09-14T01:50:56;8.35;;;2.85;;
74614;SDS011;63121;51.458;-0.110;2022-09-14T01:56:34;11.32;;;3.33;;
74614;SDS011;63121;51.458;-0.110;2022-09-14T01:59:07;7.30;;;3.00;;
74614;SDS011;63121;51.458;-0.110;2022-09-14T02:01:39;9.85;;;3.38;;
74614;SDS011;63121;51.458;-0.110;2022-09-14T02:04:09;8.32;;;2.40;;
74614;SDS011;63121;51.458;-0.110;2022-09-14T02:06:38;6.88;;;2.33;;
74614;SDS011;63121;51.458;-0.110;2022-09-14T02:09:08;9.13;;;2.55;;
74614;SDS011;63121;51.458;-0.110;2022-09-14T02:11:36;8.43;;;2.65;;
74614;SDS011;63121;51.458;-0.110;2022-09-14T02:14:02;8.93;;;2.67;;
74614;SDS011;63121;51.458;-0.110;2022-09-14T02:16:28;6.22;;;2.28;;
74614;SDS011;63121;51.458;-0.110;2022-09-14T02:18:54;6.93;;;2.38;;
74614;SDS011;63121;51.458;-0.110;2022-09-14T02:21:21;9.43;;;2.75;;
74614;SDS011;63121;51.458;-0.110;2022-09-14T02:23:49;6.75;;;2.20;;
74614;SDS011;63121;51.458;-0.110;2022-09-14T02:26:15;7.65;;;2.60;;
74614;SDS011;63121;51.458;-0.110;2022-09-14T02:28:43;6.75;;;1.92;;
74614;SDS011;63121;51.458;-0.110;2022-09-14T02:31:14;7.50;;;1.80;;
74614;SDS011;63121;51.458;-0.110;2022-09-14T02:39:21;5.78;;;1.92;;
74614;SDS011;63121;51.458;-0.110;2022-09-14T02:41:57;8.55;;;2.00;;
74614;SDS011;63121;51.458;-0.110;2022-09-14T02:44:32;8.05;;;2.10;;
74614;SDS011;63121;51.458;-0.110;2022-09-14T02:52:50;5.80;;;2.00;;
74614;SDS011;63121;51.458;-0.110;2022-09-14T02:55:20;5.45;;;2.03;;
74614;SDS011;63121;51.458;-0.110;2022-09-14T02:58:07;8.40;;;2.13;;
74614;SDS011;63121;51.458;-0.110;2022-09-14T03:00:38;6.50;;;1.90;;
74614;SDS011;63121;51.458;-0.110;2022-09-14T03:03:07;6.90;;;2.53;;
74614;SDS011;63121;51.458;-0.110;2022-09-14T03:05:34;8.48;;;2.35;;
74614;SDS011;63121;51.458;-0.110;2022-09-14T03:08:00;8.95;;;2.58;;
74614;SDS011;63121;51.458;-0.110;2022-09-14T03:10:26;8.63;;;2.13;;
74614;SDS011;63121;51.458;-0.110;2022-09-14T03:12:52;6.82;;;2.50;;
74614;SDS011;63121;51.458;-0.110;2022-09-14T03:15:18;11.20;;;2.35;;
74614;SDS011;63121;51.458;-0.110;2022-09-14T03:17:44;8.75;;;2.70;;
74614;SDS011;63121;51.458;-0.110;2022-09-14T03:20:11;7.22;;;2.70;;
74614;SDS011;63121;51.458;-0.110;2022-09-14T03:22:41;9.90;;;3.22;;
74614;SDS011;63121;51.458;-0.110;2022-09-14T03:25:06;9.32;;;3.08;;
74614;SDS011;63121;51.458;-0.110;2022-09-14T03:27:32;9.15;;;3.30;;
74614;SDS011;63121;51.458;-0.110;2022-09-14T03:29:58;8.80;;;3.07;;
74614;SDS011;63121;51.458;-0.110;2022-09-14T03:32:23;8.82;;;2.80;;
74614;SDS011;63121;51.458;-0.110;2022-09-14T03:34:48;7.97;;;3.17;;
74614;SDS011;63121;51.458;-0.110;2022-09-14T03:37:14;8.80;;;3.00;;
74614;SDS011;63121;51.458;-0.110;2022-09-14T03:39:39;10.47;;;3.57;;
74614;SDS011;63121;51.458;-0.110;2022-09-14T03:42:04;8.00;;;3.40;;
74614;SDS011;63121;51.458;-0.110;2022-09-14T03:44:30;10.18;;;3.35;;
74614;SDS011;63121;51.458;-0.110;2022-09-14T03:46:55;7.80;;;3.05;;
74614;SDS011;63121;51.458;-0.110;2022-09-14T03:49:21;12.70;;;3.60;;
74614;SDS011;63121;51.458;-0.110;2022-09-14T03:51:46;12.37;;;3.73;;
74614;SDS011;63121;51.458;-0.110;2022-09-14T03:54:11;11.17;;;3.63;;
74614;SDS011;63121;51.458;-0.110;2022-09-14T03:56:37;11.00;;;3.60;;
74614;SDS011;63121;51.458;-0.110;2022-09-14T03:59:02;9.68;;;3.38;;
74614;SDS011;63121;51.458;-0.110;2022-09-14T04:01:27;10.43;;;3.60;;
74614;SDS011;63121;51.458;-0.110;2022-09-14T04:03:53;14.87;;;3.87;;
74614;SDS011;63121;51.458;-0.110;2022-09-14T04:06:18;8.77;;;3.00;;
74614;SDS011;63121;51.458;-0.110;2022-09-14T04:08:44;12.02;;;3.50;;
74614;SDS011;63121;51.458;-0.110;2022-09-14T04:13:46;10.68;;;3.30;;
74614;SDS011;63121;51.458;-0.110;2022-09-14T04:16:12;9.88;;;3.40;;
74614;SDS011;63121;51.458;-0.110;2022-09-14T04:18:38;12.40;;;4.13;;
74614;SDS011;63121;51.458;-0.110;2022-09-14T04:21:06;12.27;;;3.40;;
74614;SDS011;63121;51.458;-0.110;2022-09-14T04:23:33;10.50;;;3.35;;
74614;SDS011;63121;51.458;-0.110;2022-09-14T04:25:58;8.18;;;3.08;;
74614;SDS011;63121;51.458;-0.110;2022-09-14T04:28:24;10.32;;;3.47;;
74614;SDS011;63121;51.458;-0.110;2022-09-14T04:30:57;12.20;;;3.47;;
74614;SDS011;63121;51.458;-0.110;2022-09-14T04:33:24;9.90;;;3.08;;
74614;SDS011;63121;51.458;-0.110;2022-09-14T04:38:43;14.30;;;3.55;;
74614;SDS011;63121;51.458;-0.110;2022-09-14T04:41:12;11.98;;;3.65;;
74614;SDS011;63121;51.458;-0.110;2022-09-14T04:43:43;10.13;;;3.70;;
74614;SDS011;63121;51.458;-0.110;2022-09-14T04:46:10;14.93;;;4.32;;
74614;SDS011;63121;51.458;-0.110;2022-09-14T04:48:40;10.68;;;3.35;;
74614;SDS011;63121;51.458;-0.110;2022-09-14T04:51:07;11.00;;;3.10;;
74614;SDS011;63121;51.458;-0.110;2022-09-14T04:53:34;9.63;;;3.15;;
74614;SDS011;63121;51.458;-0.110;2022-09-14T04:56:02;8.38;;;2.83;;
74614;SDS011;63121;51.458;-0.110;2022-09-14T04:58:30;11.30;;;3.55;;
74614;SDS011;63121;51.458;-0.110;2022-09-14T05:01:05;7.88;;;2.85;;
74614;SDS011;63121;51.458;-0.110;2022-09-14T05:03:38;7.75;;;2.78;;
74614;SDS011;63121;51.458;-0.110;2022-09-14T05:06:05;8.25;;;2.72;;
74614;SDS011;63121;51.458;-0.110;2022-09-14T05:08:39;7.47;;;2.60;;
74614;SDS011;63121;51.458;-0.110;2022-09-14T05:11:05;7.70;;;2.33;;
74614;SDS011;63121;51.458;-0.110;2022-09-14T05:13:32;10.55;;;2.42;;
74614;SDS011;63121;51.458;-0.110;2022-09-14T05:16:08;7.60;;;2.83;;
74614;SDS011;63121;51.458;-0.110;2022-09-14T05:18:34;8.02;;;2.38;;
74614;SDS011;63121;51.458;-0.110;2022-09-14T05:21:04;11.02;;;2.90;;
74614;SDS011;63121;51.458;-0.110;2022-09-14T05:23:32;10.65;;;2.50;;
74614;SDS011;63121;51.458;-0.110;2022-09-14T05:25:57;11.63;;;2.75;;
74614;SDS011;63121;51.458;-0.110;2022-09-14T05:28:24;8.18;;;2.22;;
74614;SDS011;63121;51.458;-0.110;2022-09-14T05:30:50;10.98;;;2.88;;
74614;SDS011;63121;51.458;-0.110;2022-09-14T05:33:16;7.75;;;2.47;;
74614;SDS011;63121;51.458;-0.110;2022-09-14T05:35:41;7.10;;;2.03;;
74614;SDS011;63121;51.458;-0.110;2022-09-14T05:38:06;7.40;;;2.37;;
74614;SDS011;63121;51.458;-0.110;2022-09-14T05:40:32;6.85;;;2.13;;
74614;SDS011;63121;51.458;-0.110;2022-09-14T05:42:57;7.60;;;2.20;;
74614;SDS011;63121;51.458;-0.110;2022-09-14T05:45:22;8.75;;;2.20;;
74614;SDS011;63121;51.458;-0.110;2022-09-14T05:47:48;8.25;;;2.13;;
74614;SDS011;63121;51.458;-0.110;2022-09-14T05:50:13;7.93;;;2.40;;
74614;SDS011;63121;51.458;-0.110;2022-09-14T05:52:39;9.27;;;2.30;;
74614;SDS011;63121;51.458;-0.110;2022-09-14T05:55:04;8.07;;;2.05;;
74614;SDS011;63121;51.458;-0.110;2022-09-14T05:57:31;8.32;;;2.08;;
74614;SDS011;63121;51.458;-0.110;2022-09-14T05:59:56;8.07;;;1.98;;
74614;SDS011;63121;51.458;-0.110;2022-09-14T06:02:21;6.97;;;2.30;;
74614;SDS011;63121;51.458;-0.110;2022-09-14T06:04:47;8.10;;;2.37;;
74614;SDS011;63121;51.458;-0.110;2022-09-14T06:07:12;7.90;;;2.30;;
74614;SDS011;63121;51.458;-0.110;2022-09-14T06:09:37;9.20;;;1.97;;
74614;SDS011;63121;51.458;-0.110;2022-09-14T06:12:03;8.03;;;2.23;;
74614;SDS011;63121;51.458;-0.110;2022-09-14T06:14:28;9.32;;;2.30;;
74614;SDS011;63121;51.458;-0.110;2022-09-14T06:16:54;7.75;;;2.50;;
74614;SDS011;63121;51.458;-0.110;2022-09-14T06:19:19;6.07;;;2.00;;
74614;SDS011;63121;51.458;-0.110;2022-09-14T06:21:44;11.00;;;1.83;;
74614;SDS011;63121;51.458;-0.110;2022-09-14T06:24:10;7.63;;;1.90;;
74614;SDS011;63121;51.458;-0.110;2022-09-14T06:26:38;8.57;;;2.20;;
74614;SDS011;63121;51.458;-0.110;2022-09-14T06:29:04;7.20;;;1.83;;
74614;SDS011;63121;51.458;-0.110;2022-09-14T06:31:30;11.13;;;2.63;;
74614;SDS011;63121;51.458;-0.110;2022-09-14T06:33:55;6.53;;;2.10;;
74614;SDS011;63121;51.458;-0.110;2022-09-14T06:36:22;6.05;;;1.88;;
74614;SDS011;63121;51.458;-0.110;2022-09-14T06:38:49;9.18;;;2.30;;
74614;SDS011;63121;51.458;-0.110;2022-09-14T06:41:15;8.60;;;2.33;;
74614;SDS011;63121;51.458;-0.110;2022-09-14T06:43:44;8.43;;;2.10;;
74614;SDS011;63121;51.458;-0.110;2022-09-14T06:46:11;7.80;;;2.28;;
74614;SDS011;63121;51.458;-0.110;2022-09-14T06:48:58;8.18;;;2.60;;
74614;SDS011;63121;51.458;-0.110;2022-09-14T06:51:29;8.45;;;3.05;;
74614;SDS011;63121;51.458;-0.110;2022-09-14T06:53:59;8.30;;;2.45;;
74614;SDS011;63121;51.458;-0.110;2022-09-14T06:56:36;9.30;;;2.63;;
74614;SDS011;63121;51.458;-0.110;2022-09-14T06:59:03;9.82;;;2.53;;
74614;SDS011;63121;51.458;-0.110;2022-09-14T07:01:29;7.13;;;2.25;;
74614;SDS011;63121;51.458;-0.110;2022-09-14T07:03:55;7.95;;;2.60;;
74614;SDS011;63121;51.458;-0.110;2022-09-14T07:06:22;8.23;;;2.60;;
74614;SDS011;63121;51.458;-0.110;2022-09-14T07:08:50;8.32;;;3.05;;
74614;SDS011;63121;51.458;-0.110;2022-09-14T07:11:16;8.48;;;2.80;;
74614;SDS011;63121;51.458;-0.110;2022-09-14T07:13:44;10.27;;;2.88;;
74614;SDS011;63121;51.458;-0.110;2022-09-14T07:16:10;9.27;;;3.35;;
74614;SDS011;63121;51.458;-0.110;2022-09-14T07:18:37;11.30;;;2.90;;
74614;SDS011;63121;51.458;-0.110;2022-09-14T07:21:03;12.95;;;4.28;;
74614;SDS011;63121;51.458;-0.110;2022-09-14T07:23:34;11.45;;;2.80;;
74614;SDS011;63121;51.458;-0.110;2022-09-14T07:26:02;10.13;;;3.10;;
74614;SDS011;63121;51.458;-0.110;2022-09-14T07:28:36;8.93;;;3.25;;
74614;SDS011;63121;51.458;-0.110;2022-09-14T07:31:03;10.25;;;3.13;;
74614;SDS011;63121;51.458;-0.110;2022-09-14T07:33:29;8.90;;;3.55;;
74614;SDS011;63121;51.458;-0.110;2022-09-14T07:36:03;9.65;;;3.40;;
74614;SDS011;63121;51.458;-0.110;2022-09-14T07:38:29;9.80;;;3.50;;
74614;SDS011;63121;51.458;-0.110;2022-09-14T07:40:58;11.77;;;3.70;;
74614;SDS011;63121;51.458;-0.110;2022-09-14T07:43:23;10.63;;;3.35;;
74614;SDS011;63121;51.458;-0.110;2022-09-14T07:45:49;8.38;;;3.45;;
74614;SDS011;63121;51.458;-0.110;2022-09-14T07:48:14;13.57;;;3.83;;
74614;SDS011;63121;51.458;-0.110;2022-09-14T07:50:40;11.30;;;3.50;;
74614;SDS011;63121;51.458;-0.110;2022-09-14T07:53:05;7.60;;;3.17;;
74614;SDS011;63121;51.458;-0.110;2022-09-14T07:55:30;9.40;;;3.03;;
74614;SDS011;63121;51.458;-0.110;2022-09-14T07:57:56;6.15;;;2.15;;
74614;SDS011;63121;51.458;-0.110;2022-09-14T08:00:21;7.35;;;2.78;;
74614;SDS011;63121;51.458;-0.110;2022-09-14T08:02:51;8.63;;;2.50;;
74614;SDS011;63121;51.458;-0.110;2022-09-14T08:05:19;6.30;;;2.10;;
74614;SDS011;63121;51.458;-0.110;2022-09-14T08:07:44;7.32;;;2.60;;
74614;SDS011;63121;51.458;-0.110;2022-09-14T08:10:10;7.28;;;2.10;;
74614;SDS011;63121;51.458;-0.110;2022-09-14T08:12:35;8.40;;;2.30;;
74614;SDS011;63121;51.458;-0.110;2022-09-14T08:15:00;6.03;;;1.90;;
74614;SDS011;63121;51.458;-0.110;2022-09-14T08:17:26;8.02;;;2.08;;
74614;SDS011;63121;51.458;-0.110;2022-09-14T08:19:51;8.10;;;2.22;;
74614;SDS011;63121;51.458;-0.110;2022-09-14T08:22:17;7.43;;;1.70;;
74614;SDS011;63121;51.458;-0.110;2022-09-14T08:24:42;10.55;;;1.92;;
74614;SDS011;63121;51.458;-0.110;2022-09-14T08:27:08;7.10;;;1.80;;
74614;SDS011;63121;51.458;-0.110;2022-09-14T08:29:34;7.50;;;1.75;;
74614;SDS011;63121;51.458;-0.110;2022-09-14T08:32:00;8.48;;;1.60;;
74614;SDS011;63121;51.458;-0.110;2022-09-14T08:34:25;5.93;;;1.65;;
74614;SDS011;63121;51.458;-0.110;2022-09-14T08:36:51;9.32;;;1.80;;
74614;SDS011;63121;51.458;-0.110;2022-09-14T08:39:16;6.43;;;1.60;;
74614;SDS011;63121;51.458;-0.110;2022-09-14T08:44:15;6.00;;;1.57;;
74614;SDS011;63121;51.458;-0.110;2022-09-14T08:52:12;5.95;;;1.63;;
74614;SDS011;63121;51.458;-0.110;2022-09-14T08:54:43;6.90;;;1.92;;
74614;SDS011;63121;51.458;-0.110;2022-09-14T08:57:25;6.88;;;1.73;;
74614;SDS011;63121;51.458;-0.110;2022-09-14T09:00:02;7.25;;;2.08;;
74614;SDS011;63121;51.458;-0.110;2022-09-14T09:05:22;9.25;;;2.10;;
74614;SDS011;63121;51.458;-0.110;2022-09-14T09:08:13;4.90;;;1.45;;
74614;SDS011;63121;51.458;-0.110;2022-09-14T09:10:47;5.65;;;1.40;;
74614;SDS011;63121;51.458;-0.110;2022-09-14T09:13:17;9.70;;;1.58;;
74614;SDS011;63121;51.458;-0.110;2022-09-14T09:15:50;6.00;;;1.40;;
74614;SDS011;63121;51.458;-0.110;2022-09-14T09:18:40;5.95;;;1.48;;
74614;SDS011;63121;51.458;-0.110;2022-09-14T09:24:01;7.25;;;1.60;;
74614;SDS011;63121;51.458;-0.110;2022-09-14T09:26:40;6.55;;;1.60;;
74614;SDS011;63121;51.458;-0.110;2022-09-14T09:29:07;6.78;;;1.42;;
74614;SDS011;63121;51.458;-0.110;2022-09-14T09:31:38;6.60;;;1.45;;
74614;SDS011;63121;51.458;-0.110;2022-09-14T09:34:09;8.05;;;2.08;;
74614;SDS011;63121;51.458;-0.110;2022-09-14T09:36:38;8.80;;;1.50;;
74614;SDS011;63121;51.458;-0.110;2022-09-14T09:39:05;4.60;;;1.20;;
74614;SDS011;63121;51.458;-0.110;2022-09-14T09:44:40;6.30;;;1.50;;
74614;SDS011;63121;51.458;-0.110;2022-09-14T09:47:29;4.88;;;1.40;;
74614;SDS011;63121;51.458;-0.110;2022-09-14T09:52:43;7.32;;;1.98;;
74614;SDS011;63121;51.458;-0.110;2022-09-14T09:55:20;6.30;;;1.95;;
74614;SDS011;63121;51.458;-0.110;2022-09-14T09:57:49;10.80;;;2.80;;
74614;SDS011;63121;51.458;-0.110;2022-09-14T10:02:42;7.40;;;1.90;;
74614;SDS011;63121;51.458;-0.110;2022-09-14T10:10:14;7.25;;;1.73;;
74614;SDS011;63121;51.458;-0.110;2022-09-14T10:12:46;11.95;;;2.05;;
74614;SDS011;63121;51.458;-0.110;2022-09-14T10:18:03;10.70;;;2.70;;
74614;SDS011;63121;51.458;-0.110;2022-09-14T10:20:33;8.40;;;1.92;;
74614;SDS011;63121;51.458;-0.110;2022-09-14T10:25:47;8.82;;;1.90;;
74614;SDS011;63121;51.458;-0.110;2022-09-14T10:28:21;10.40;;;2.00;;
74614;SDS011;63121;51.458;-0.110;2022-09-14T10:31:00;8.32;;;1.80;;
74614;SDS011;63121;51.458;-0.110;2022-09-14T10:33:37;8.48;;;2.13;;
74614;SDS011;63121;51.458;-0.110;2022-09-14T11:06:13;5.25;;;1.23;;
74614;SDS011;63121;51.458;-0.110;2022-09-14T11:08:58;5.05;;;1.20;;
74614;SDS011;63121;51.458;-0.110;2022-09-14T11:16:34;6.97;;;1.30;;
74614;SDS011;63121;51.458;-0.110;2022-09-14T11:27:37;5.38;;;1.70;;
74614;SDS011;63121;51.458;-0.110;2022-09-14T11:30:11;7.50;;;1.40;;
74614;SDS011;63121;51.458;-0.110;2022-09-14T11:32:47;5.70;;;1.20;;
74614;SDS011;63121;51.458;-0.110;2022-09-14T11:38:02;7.05;;;1.30;;
74614;SDS011;63121;51.458;-0.110;2022-09-14T11:40:40;7.03;;;1.38;;
74614;SDS011;63121;51.458;-0.110;2022-09-14T11:43:15;4.57;;;1.00;;
74614;SDS011;63121;51.458;-0.110;2022-09-14T11:46:08;3.25;;;1.00;;
74614;SDS011;63121;51.458;-0.110;2022-09-14T11:51:19;5.65;;;1.33;;
74614;SDS011;63121;51.458;-0.110;2022-09-14T11:53:48;9.20;;;1.38;;
74614;SDS011;63121;51.458;-0.110;2022-09-14T11:56:20;4.55;;;1.02;;
74614;SDS011;63121;51.458;-0.110;2022-09-14T11:58:51;6.85;;;1.40;;
74614;SDS011;63121;51.458;-0.110;2022-09-14T12:04:06;5.88;;;1.20;;
74614;SDS011;63121;51.458;-0.110;2022-09-14T12:11:41;6.60;;;1.40;;
74614;SDS011;63121;51.458;-0.110;2022-09-14T12:14:22;6.70;;;1.48;;
74614;SDS011;63121;51.458;-0.110;2022-09-14T12:19:45;5.88;;;1.42;;
74614;SDS011;63121;51.458;-0.110;2022-09-14T12:24:56;7.90;;;1.50;;
74614;SDS011;63121;51.458;-0.110;2022-09-14T12:27:24;7.82;;;1.50;;
74614;SDS011;63121;51.458;-0.110;2022-09-14T12:29:50;4.40;;;1.20;;
74614;SDS011;63121;51.458;-0.110;2022-09-14T12:32:48;5.87;;;1.10;;
74614;SDS011;63121;51.458;-0.110;2022-09-14T12:40:57;5.93;;;1.60;;
74614;SDS011;63121;51.458;-0.110;2022-09-14T12:51:12;7.83;;;1.60;;
74614;SDS011;63121;51.458;-0.110;2022-09-14T12:54:04;2.63;;;1.00;;
74614;SDS011;63121;51.458;-0.110;2022-09-14T12:56:49;5.70;;;1.20;;
74614;SDS011;63121;51.458;-0.110;2022-09-14T13:04:52;8.70;;;1.65;;
74614;SDS011;63121;51.458;-0.110;2022-09-14T13:07:20;6.75;;;1.42;;
74614;SDS011;63121;51.458;-0.110;2022-09-14T13:09:47;3.67;;;1.05;;
74614;SDS011;63121;51.458;-0.110;2022-09-14T13:14:59;6.45;;;1.70;;
74614;SDS011;63121;51.458;-0.110;2022-09-14T13:17:27;4.32;;;1.20;;
74614;SDS011;63121;51.458;-0.110;2022-09-14T13:19:54;5.95;;;1.30;;
74614;SDS011;63121;51.458;-0.110;2022-09-14T13:22:26;6.45;;;2.38;;
74614;SDS011;63121;51.458;-0.110;2022-09-14T13:24:53;3.97;;;1.33;;
74614;SDS011;63121;51.458;-0.110;2022-09-14T13:27:21;5.55;;;1.42;;
74614;SDS011;63121;51.458;-0.110;2022-09-14T13:29:47;4.88;;;1.15;;
74614;SDS011;63121;51.458;-0.110;2022-09-14T13:32:32;5.05;;;1.08;;
74614;SDS011;63121;51.458;-0.110;2022-09-14T13:35:00;7.55;;;1.40;;
74614;SDS011;63121;51.458;-0.110;2022-09-14T13:37:28;4.75;;;1.10;;
74614;SDS011;63121;51.458;-0.110;2022-09-14T13:39:54;5.75;;;1.30;;
74614;SDS011;63121;51.458;-0.110;2022-09-14T13:42:21;5.07;;;1.10;;
74614;SDS011;63121;51.458;-0.110;2022-09-14T13:44:48;5.30;;;1.10;;
74614;SDS011;63121;51.458;-0.110;2022-09-14T13:47:18;6.30;;;1.45;;
74614;SDS011;63121;51.458;-0.110;2022-09-14T13:49:45;6.60;;;1.35;;
74614;SDS011;63121;51.458;-0.110;2022-09-14T13:52:16;2.85;;;1.00;;
74614;SDS011;63121;51.458;-0.110;2022-09-14T13:54:48;7.72;;;1.30;;
74614;SDS011;63121;51.458;-0.110;2022-09-14T13:57:19;4.55;;;0.98;;
74614;SDS011;63121;51.458;-0.110;2022-09-14T14:02:41;4.20;;;1.10;;
74614;SDS011;63121;51.458;-0.110;2022-09-14T14:07:48;4.85;;;1.13;;
74614;SDS011;63121;51.458;-0.110;2022-09-14T14:12:48;6.43;;;1.48;;
74614;SDS011;63121;51.458;-0.110;2022-09-14T14:17:42;4.78;;;1.20;;
74614;SDS011;63121;51.458;-0.110;2022-09-14T14:22:58;4.72;;;1.20;;
74614;SDS011;63121;51.458;-0.110;2022-09-14T14:28:03;6.72;;;1.15;;
74614;SDS011;63121;51.458;-0.110;2022-09-14T14:30:32;4.82;;;1.40;;
74614;SDS011;63121;51.458;-0.110;2022-09-14T14:33:01;6.38;;;1.67;;
74614;SDS011;63121;51.458;-0.110;2022-09-14T14:35:30;5.03;;;1.20;;
74614;SDS011;63121;51.458;-0.110;2022-09-14T14:37:55;4.10;;;1.10;;
74614;SDS011;63121;51.458;-0.110;2022-09-14T14:40:22;5.38;;;1.35;;
74614;SDS011;63121;51.458;-0.110;2022-09-14T14:42:51;7.07;;;1.30;;
74614;SDS011;63121;51.458;-0.110;2022-09-14T14:45:18;7.20;;;1.40;;
74614;SDS011;63121;51.458;-0.110;2022-09-14T14:47:50;6.38;;;1.30;;
74614;SDS011;63121;51.458;-0.110;2022-09-14T14:50:17;5.00;;;1.25;;
74614;SDS011;63121;51.458;-0.110;2022-09-14T14:52:44;8.40;;;1.63;;
74614;SDS011;63121;51.458;-0.110;2022-09-14T14:55:09;5.65;;;1.38;;
74614;SDS011;63121;51.458;-0.110;2022-09-14T14:57:35;5.82;;;1.45;;
74614;SDS011;63121;51.458;-0.110;2022-09-14T15:00:04;10.20;;;1.48;;
74614;SDS011;63121;51.458;-0.110;2022-09-14T15:02:35;7.53;;;1.30;;
74614;SDS011;63121;51.458;-0.110;2022-09-14T15:05:00;6.95;;;1.20;;
74614;SDS011;63121;51.458;-0.110;2022-09-14T15:07:26;5.80;;;1.30;;
74614;SDS011;63121;51.458;-0.110;2022-09-14T15:09:51;5.63;;;1.30;;
74614;SDS011;63121;51.458;-0.110;2022-09-14T15:12:17;10.23;;;1.50;;
74614;SDS011;63121;51.458;-0.110;2022-09-14T15:14:42;5.78;;;1.17;;
74614;SDS011;63121;51.458;-0.110;2022-09-14T15:17:07;6.88;;;1.60;;
74614;SDS011;63121;51.458;-0.110;2022-09-14T15:19:33;6.00;;;1.30;;
74614;SDS011;63121;51.458;-0.110;2022-09-14T15:21:58;5.23;;;1.27;;
74614;SDS011;63121;51.458;-0.110;2022-09-14T15:24:24;4.10;;;1.10;;
74614;SDS011;63121;51.458;-0.110;2022-09-14T15:26:49;7.10;;;1.47;;
74614;SDS011;63121;51.458;-0.110;2022-09-14T15:29:14;8.07;;;1.47;;
74614;SDS011;63121;51.458;-0.110;2022-09-14T15:31:42;7.05;;;1.58;;
74614;SDS011;63121;51.458;-0.110;2022-09-14T15:34:07;7.07;;;1.42;;
74614;SDS011;63121;51.458;-0.110;2022-09-14T15:36:46;6.57;;;1.37;;
74614;SDS011;63121;51.458;-0.110;2022-09-14T15:39:15;5.85;;;1.50;;
74614;SDS011;63121;51.458;-0.110;2022-09-14T15:41:43;6.75;;;1.40;;
74614;SDS011;63121;51.458;-0.110;2022-09-14T15:44:08;5.70;;;1.42;;
74614;SDS011;63121;51.458;-0.110;2022-09-14T15:46:35;4.72;;;1.08;;
74614;SDS011;63121;51.458;-0.110;2022-09-14T15:49:03;5.90;;;1.30;;
74614;SDS011;63121;51.458;-0.110;2022-09-14T15:51:30;5.60;;;1.45;;
74614;SDS011;63121;51.458;-0.110;2022-09-14T15:53:57;6.13;;;1.30;;
74614;SDS011;63121;51.458;-0.110;2022-09-14T15:56:23;6.10;;;1.23;;
74614;SDS011;63121;51.458;-0.110;2022-09-14T15:58:48;4.67;;;1.10;;
74614;SDS011;63121;51.458;-0.110;2022-09-14T16:01:14;5.80;;;1.50;;
74614;SDS011;63121;51.458;-0.110;2022-09-14T16:03:41;5.13;;;1.20;;
74614;SDS011;63121;51.458;-0.110;2022-09-14T16:06:15;5.25;;;1.20;;
74614;SDS011;63121;51.458;-0.110;2022-09-14T16:08:41;3.47;;;1.00;;
74614;SDS011;63121;51.458;-0.110;2022-09-14T16:11:06;6.77;;;1.27;;
74614;SDS011;63121;51.458;-0.110;2022-09-14T16:13:33;3.80;;;1.23;;
74614;SDS011;63121;51.458;-0.110;2022-09-14T16:18:32;5.07;;;1.10;;
74614;SDS011;63121;51.458;-0.110;2022-09-14T16:23:36;5.63;;;1.40;;
74614;SDS011;63121;51.458;-0.110;2022-09-14T16:26:04;5.40;;;1.20;;
74614;SDS011;63121;51.458;-0.110;2022-09-14T16:28:30;8.00;;;2.10;;
74614;SDS011;63121;51.458;-0.110;2022-09-14T16:31:03;4.15;;;1.35;;
74614;SDS011;63121;51.458;-0.110;2022-09-14T16:33:30;4.38;;;1.20;;
74614;SDS011;63121;51.458;-0.110;2022-09-14T16:36:02;4.00;;;1.52;;
74614;SDS011;63121;51.458;-0.110;2022-09-14T16:38:30;4.53;;;1.10;;
74614;SDS011;63121;51.458;-0.110;2022-09-14T16:40:59;7.30;;;1.48;;
74614;SDS011;63121;51.458;-0.110;2022-09-14T16:43:25;5.25;;;1.40;;
74614;SDS011;63121;51.458;-0.110;2022-09-14T16:46:01;4.95;;;1.40;;
74614;SDS011;63121;51.458;-0.110;2022-09-14T16:48:29;4.50;;;1.40;;
74614;SDS011;63121;51.458;-0.110;2022-09-14T16:50:55;4.57;;;1.45;;
74614;SDS011;63121;51.458;-0.110;2022-09-14T16:53:21;4.72;;;1.20;;
74614;SDS011;63121;51.458;-0.110;2022-09-14T16:55:46;5.20;;;1.60;;
74614;SDS011;63121;51.458;-0.110;2022-09-14T16:58:12;6.53;;;1.83;;
74614;SDS011;63121;51.458;-0.110;2022-09-14T17:00:38;7.25;;;1.80;;
74614;SDS011;63121;51.458;-0.110;2022-09-14T17:03:03;5.30;;;1.40;;
74614;SDS011;63121;51.458;-0.110;2022-09-14T17:05:29;6.38;;;1.77;;
74614;SDS011;63121;51.458;-0.110;2022-09-14T17:07:54;6.20;;;1.50;;
74614;SDS011;63121;51.458;-0.110;2022-09-14T17:10:19;5.23;;;1.33;;
74614;SDS011;63121;51.458;-0.110;2022-09-14T17:12:45;8.45;;;1.70;;
74614;SDS011;63121;51.458;-0.110;2022-09-14T17:15:11;5.03;;;1.70;;
74614;SDS011;63121;51.458;-0.110;2022-09-14T17:17:38;7.68;;;1.70;;
74614;SDS011;63121;51.458;-0.110;2022-09-14T17:20:03;7.67;;;1.70;;
74614;SDS011;63121;51.458;-0.110;2022-09-14T17:22:29;6.32;;;1.65;;
74614;SDS011;63121;51.458;-0.110;2022-09-14T17:24:54;5.72;;;1.73;;
74614;SDS011;63121;51.458;-0.110;2022-09-14T17:27:20;7.13;;;1.70;;
74614;SDS011;63121;51.458;-0.110;2022-09-14T17:29:46;5.97;;;1.98;;
74614;SDS011;63121;51.458;-0.110;2022-09-14T17:32:12;7.03;;;2.05;;
74614;SDS011;63121;51.458;-0.110;2022-09-14T17:34:37;6.53;;;1.80;;
74614;SDS011;63121;51.458;-0.110;2022-09-14T17:37:03;6.32;;;1.83;;
74614;SDS011;63121;51.458;-0.110;2022-09-14T17:39:29;6.45;;;1.80;;